Skip Navigation Links
NOAA logo - Click to go to the NOAA homepage
NOAA's National Weather Service
Alaska Aviation Weather Unit
  NWS logo - Click to go to the NWS homepage
Left Navbar Graphic     12 AKDT = 20 GMT

   
NOAA is celebrating 200 years of science, service, and stewardship. Visit the NOAA 200th celebration Web site to learn more.
USA.gov is the U.S. Government's official Web portal to all Federal, state and local government Web resources and services.
Facebook
NWS on Facebook

Important Change Regarding the AAWU Web Presence

 

Over the last several months, the AAWU has been working to navigate its webpages to a nationally supported server. Security, as well as other needs, have necessitated the change.  We have been given an extension for the site changeover while we diligently work at addressing feedback received. As of July 14, 2017, aawu.arh.noaa.gov will be discontinued. The new AAWU web address is weather.gov/aawu. It is now live and will run in-parallel with the old site until it is discontinued on July 14, 2017. Please continue to send any feedback or questions regarding the new webpages to nws.ar.aawu.webauthors@noaa.gov.  Thank you for your patience during this time of transition.
AAWU Home :: Display TAF Add Bookmark
TAF CYDB 251738Z 2518/2606 10006KT P6SM FEW060 SCT090 TEMPO 2522/2606
     BKN060 BKN090
    RMK NXT FCST BY 260000Z=

METAR CYDB 251400Z 13002KT 25SM VCSH SCT065 BKN080 10/08 A2998 RMK SC3ACC4 SLP167= METAR CYDB 251500Z 12005KT 25SM VCSH FEW065 BKN075 BKN090 11/07 A2998 RMK SC2ACC3AC2 SLP166 DENSITY ALT 2800FT= METAR CYDB 251600Z 10006KT 25SM FEW065 BKN075 BKN090 12/07 A2997 RMK SC2ACC3AC1 DIST SH W SLP166 DENSITY ALT 2900FT= METAR CYDB 251700Z 10006KT 30SM FEW065 SCT085 14/08 A2996 RMK CU2AC2 SLP162 DENSITY ALT 3100FT= METAR CYDB 251800Z 11009KT 30SM FEW065 SCT080 15/09 A2994 RMK CU2ACC2 SLP156 DENSITY ALT 3300FT= METAR CYDB 251900Z 09005KT 030V130 30SM FEW065 BKN090 15/08 A2993 RMK CU2AC3 SLP153 DENSITY ALT 3300FT= METAR CYDB 252000Z VRB02KT 30SM FEW065 BKN080 16/09 A2991 RMK CU2AC3 SLP148 DENSITY ALT 3500FT=
 Alaska TAF Map

NOAA's National Weather Service
Alaska Aviation Weather Unit
6930 Sand Lake Road
Anchorage, AK 99502-1845
Disclaimer
Credits
Glossary
Privacy Policy
About Us
Career Opportunities
Contact AAWU Internet Services Site last modified: April, 17th 2012